Time;durP1;ratioP1;P1;durP2;ratioP2;P2;SDS_P1;SDS_P2;PMS_P1;PMS_P2;Temp;Humidity;BMP_temperature;BMP_pressure;BME280_temperature;BME280_humidity;BME280_pressure;Samples;Min_cycle;Max_cycle;Signal;HPM_P1;HPM_P2
2023/08/16 00:00:56;;;;;;;5.00;4.03;;;22.60;99.90;;;;;;2507452;23;20003;-73
2023/08/16 00:01:57;;;;;;;4.97;3.65;;;22.60;99.90;;;;;;2507483;23;20023;-73
2023/08/16 00:02:58;;;;;;;6.05;4.43;;;22.60;99.90;;;;;;2507269;23;20405;-73
2023/08/16 00:03:58;;;;;;;4.75;3.20;;;22.60;99.90;;;;;;2507067;23;20026;-73
2023/08/16 00:04:59;;;;;;;6.82;3.28;;;22.60;99.90;;;;;;2506968;23;20066;-73
2023/08/16 00:06:10;;;;;;;4.63;3.03;;;22.60;99.90;;;;;;2507290;23;20003;-73
2023/08/16 00:07:11;;;;;;;6.05;3.40;;;22.60;99.90;;;;;;2506722;23;20003;-73
2023/08/16 00:08:12;;;;;;;4.10;3.38;;;22.60;99.90;;;;;;2507123;23;20022;-73
2023/08/16 00:09:13;;;;;;;6.88;3.40;;;22.60;99.90;;;;;;2507458;23;20412;-73
2023/08/16 00:10:13;;;;;;;4.50;2.78;;;22.60;99.90;;;;;;2517460;23;20002;-73
2023/08/16 00:11:14;;;;;;;4.82;3.30;;;22.60;99.90;;;;;;2518376;23;19998;-73
2023/08/16 00:12:14;;;;;;;3.33;2.55;;;22.50;99.90;;;;;;2507713;23;20717;-73
2023/08/16 00:13:15;;;;;;;5.13;3.08;;;22.60;99.90;;;;;;2518418;23;20015;-73
2023/08/16 00:14:15;;;;;;;5.30;3.70;;;22.60;99.90;;;;;;2518369;23;20373;-73
2023/08/16 00:15:17;;;;;;;5.85;3.28;;;22.60;99.90;;;;;;2506683;23;20098;-73
2023/08/16 00:16:18;;;;;;;6.20;3.63;;;22.50;99.90;;;;;;2506625;23;20082;-73
2023/08/16 00:17:18;;;;;;;3.72;3.20;;;22.50;99.90;;;;;;2506415;23;20017;-73
2023/08/16 00:18:19;;;;;;;5.32;3.55;;;22.50;99.90;;;;;;2507646;23;20118;-73
2023/08/16 00:19:20;;;;;;;6.32;3.53;;;22.50;99.90;;;;;;2507379;23;20018;-73
2023/08/16 00:20:21;;;;;;;5.40;3.60;;;22.50;99.90;;;;;;2506931;23;20007;-73
2023/08/16 00:21:21;;;;;;;7.20;3.28;;;22.50;99.90;;;;;;2506890;23;20042;-73
2023/08/16 00:22:22;;;;;;;4.25;3.03;;;22.50;99.90;;;;;;2507031;23;20111;-73
2023/08/16 00:23:23;;;;;;;6.15;3.67;;;22.40;99.90;;;;;;2518479;23;20010;-73
2023/08/16 00:24:24;;;;;;;5.40;3.33;;;22.50;99.90;;;;;;2518310;23;20002;-74
2023/08/16 00:25:24;;;;;;;6.05;3.30;;;22.40;99.90;;;;;;2507160;23;20496;-74
2023/08/16 00:26:25;;;;;;;5.57;3.42;;;22.40;99.90;;;;;;2506579;23;20074;-74
2023/08/16 00:27:25;;;;;;;7.00;2.58;;;22.40;99.90;;;;;;2506851;23;20058;-74
2023/08/16 00:28:27;;;;;;;7.32;3.75;;;22.40;99.90;;;;;;2507212;23;20002;-74
2023/08/16 00:29:27;;;;;;;3.40;3.10;;;22.40;99.90;;;;;;2518501;23;20038;-74
2023/08/16 00:30:28;;;;;;;4.65;3.50;;;22.40;99.90;;;;;;2518174;23;20050;-74
2023/08/16 00:31:29;;;;;;;4.00;3.20;;;22.40;99.90;;;;;;2518242;23;20014;-74
2023/08/16 00:32:29;;;;;;;4.65;3.15;;;22.30;99.90;;;;;;2519039;23;20581;-74
2023/08/16 00:33:30;;;;;;;4.80;2.97;;;22.30;99.90;;;;;;2506688;23;20081;-74
2023/08/16 00:34:30;;;;;;;5.25;3.17;;;22.30;99.90;;;;;;2507402;23;20006;-74
2023/08/16 00:35:31;;;;;;;7.28;3.60;;;22.30;99.90;;;;;;2507680;23;20038;-74
2023/08/16 00:36:31;;;;;;;6.10;3.78;;;22.30;99.90;;;;;;2506816;23;20384;-74
2023/08/16 00:37:32;;;;;;;4.82;3.58;;;22.30;99.90;;;;;;2506554;23;20026;-74
2023/08/16 00:38:34;;;;;;;4.38;3.75;;;22.20;99.90;;;;;;2517850;23;20050;-74
2023/08/16 00:39:34;;;;;;;7.20;3.47;;;22.20;99.90;;;;;;2518097;23;20033;-74
2023/08/16 00:40:35;;;;;;;5.05;3.60;;;22.20;99.90;;;;;;2507302;23;20010;-74
2023/08/16 00:41:35;;;;;;;3.38;3.08;;;22.20;99.90;;;;;;2507065;23;20011;-74
2023/08/16 00:42:36;;;;;;;5.82;3.10;;;22.20;99.90;;;;;;2506682;23;20062;-74
2023/08/16 00:43:37;;;;;;;5.78;3.13;;;22.20;99.90;;;;;;2516572;23;20113;-74
2023/08/16 00:44:37;;;;;;;4.55;3.15;;;22.20;99.90;;;;;;2518323;23;20006;-74
2023/08/16 00:45:38;;;;;;;5.40;3.47;;;22.20;99.90;;;;;;2506763;23;20015;-74
2023/08/16 00:46:39;;;;;;;4.38;3.25;;;22.20;99.90;;;;;;2506929;23;20066;-74
2023/08/16 00:47:39;;;;;;;5.70;3.35;;;22.20;99.90;;;;;;2506663;23;20018;-74
2023/08/16 00:48:42;;;;;;;4.35;3.38;;;22.20;99.90;;;;;;2507069;23;20026;-74
2023/08/16 00:49:42;;;;;;;5.57;4.00;;;22.20;99.90;;;;;;2506715;23;20018;-74
2023/08/16 00:50:44;;;;;;;7.32;4.45;;;22.20;99.90;;;;;;2507374;23;20007;-74
2023/08/16 00:51:45;;;;;;;4.90;3.58;;;22.20;99.90;;;;;;2507171;23;20456;-74
2023/08/16 00:52:46;;;;;;;7.28;4.30;;;22.20;99.90;;;;;;2518841;23;20471;-74
2023/08/16 00:53:46;;;;;;;4.80;4.30;;;22.10;99.90;;;;;;2518505;23;20419;-74
2023/08/16 00:54:47;;;;;;;7.30;4.32;;;22.10;99.90;;;;;;2507047;23;20015;-74
2023/08/16 00:55:48;;;;;;;6.45;4.50;;;22.10;99.90;;;;;;2507161;23;20317;-74
2023/08/16 00:56:49;;;;;;;5.20;4.70;;;22.10;99.90;;;;;;2506430;23;20335;-74
2023/08/16 00:57:50;;;;;;;5.90;3.92;;;22.10;99.90;;;;;;2506275;23;20113;-73
2023/08/16 00:58:50;;;;;;;4.28;3.30;;;22.10;99.90;;;;;;2518040;23;20021;-74
2023/08/16 00:59:51;;;;;;;7.82;3.03;;;22.10;99.90;;;;;;2518767;23;20419;-74
2023/08/16 01:00:52;;;;;;;9.10;4.18;;;22.10;99.90;;;;;;2507146;23;20007;-74
2023/08/16 01:01:53;;;;;;;5.18;3.80;;;22.10;99.90;;;;;;2507158;23;20011;-74
2023/08/16 01:02:53;;;;;;;4.95;3.38;;;22.10;99.90;;;;;;2507418;23;20013;-74
2023/08/16 01:03:54;;;;;;;6.03;2.83;;;22.10;99.90;;;;;;2506926;23;20005;-74
2023/08/16 01:04:56;;;;;;;8.02;3.45;;;22.10;99.90;;;;;;2507138;23;20002;-74
2023/08/16 01:05:56;;;;;;;4.57;3.55;;;22.10;99.90;;;;;;2507448;23;20058;-74
2023/08/16 01:06:57;;;;;;;7.47;4.53;;;22.10;99.90;;;;;;2505989;23;20134;-74
2023/08/16 01:07:59;;;;;;;5.80;3.53;;;22.00;99.90;;;;;;2506881;23;20003;-74
2023/08/16 01:09:00;;;;;;;7.05;4.18;;;22.00;99.90;;;;;;2506345;23;20007;-74
2023/08/16 01:10:01;;;;;;;5.13;4.30;;;22.00;99.90;;;;;;2506492;23;20018;-74
2023/08/16 01:11:14;;;;;;;7.93;4.22;;;22.00;99.90;;;;;;2507016;23;20010;-74
2023/08/16 01:12:23;;;;;;;8.35;5.38;;;22.00;99.90;;;;;;2507361;23;20069;-74
2023/08/16 01:13:49;;;;;;;6.57;4.03;;;21.90;99.90;;;;;;2507021;23;20006;-74
2023/08/16 01:15:03;;;;;;;7.03;5.03;;;21.90;99.90;;;;;;2507119;23;20013;-74
2023/08/16 01:16:09;;;;;;;5.47;4.60;;;21.90;99.90;;;;;;2507484;23;20010;-74
2023/08/16 01:17:12;;;;;;;4.28;3.92;;;21.80;99.90;;;;;;2506074;23;20864;-74
2023/08/16 01:18:14;;;;;;;5.53;4.07;;;21.80;99.90;;;;;;2507320;23;20003;-74
2023/08/16 01:19:27;;;;;;;6.47;4.93;;;21.80;99.90;;;;;;2506900;23;20320;-74
2023/08/16 01:20:29;;;;;;;6.93;4.57;;;21.80;99.90;;;;;;2506980;23;20019;-74
2023/08/16 01:21:32;;;;;;;6.35;3.88;;;21.80;99.90;;;;;;2517598;23;20562;-74
2023/08/16 01:23:05;;;;;;;6.28;4.80;;;21.80;99.90;;;;;;2517321;23;20061;-74
2023/08/16 01:24:16;;;;;;;5.47;4.30;;;21.70;99.90;;;;;;2507495;23;20431;-74
2023/08/16 01:25:39;;;;;;;6.35;4.32;;;21.70;99.90;;;;;;2517784;23;20335;-74
2023/08/16 01:26:42;;;;;;;13.45;4.28;;;21.70;99.90;;;;;;2514285;23;20073;-74
2023/08/16 01:27:43;;;;;;;7.15;4.60;;;21.70;99.90;;;;;;2504748;23;20057;-74
2023/08/16 01:28:45;;;;;;;6.65;3.97;;;21.70;99.90;;;;;;2507138;23;20034;-74
2023/08/16 01:29:47;;;;;;;7.55;5.15;;;21.70;99.90;;;;;;2517697;23;20053;-74
2023/08/16 01:30:49;;;;;;;4.45;3.88;;;21.70;99.90;;;;;;2517845;23;20003;-74
2023/08/16 01:31:50;;;;;;;4.82;3.65;;;21.70;99.90;;;;;;2517903;23;20505;-74
2023/08/16 01:32:51;;;;;;;4.38;3.40;;;21.70;99.90;;;;;;2518443;23;20486;-74
2023/08/16 01:33:51;;;;;;;4.10;3.33;;;21.70;99.90;;;;;;2507315;23;20079;-74
2023/08/16 01:34:52;;;;;;;6.18;4.15;;;21.70;99.90;;;;;;2506684;23;20015;-74
2023/08/16 01:35:52;;;;;;;5.32;4.05;;;21.60;99.90;;;;;;2506009;23;20034;-74
2023/08/16 01:36:53;;;;;;;3.85;3.33;;;21.60;99.90;;;;;;2507440;23;20735;-74
2023/08/16 01:37:53;;;;;;;5.15;4.38;;;21.60;99.90;;;;;;2506268;23;20011;-74
2023/08/16 01:38:56;;;;;;;5.78;4.15;;;21.60;99.90;;;;;;2506415;23;20093;-74
2023/08/16 01:40:04;;;;;;;4.43;4.03;;;21.60;99.90;;;;;;2507065;23;20369;-74
2023/08/16 01:41:32;;;;;;;5.32;4.65;;;21.60;99.90;;;;;;2517339;23;20002;-74
2023/08/16 01:42:36;;;;;;;5.05;4.57;;;21.50;99.90;;;;;;2512632;23;20930;-74
2023/08/16 01:43:39;;;;;;;5.55;4.22;;;21.50;99.90;;;;;;2507414;23;20086;-74
2023/08/16 01:44:40;;;;;;;6.85;4.20;;;21.50;99.90;;;;;;2506671;23;20062;-74
2023/08/16 01:45:40;;;;;;;9.40;5.28;;;21.50;99.90;;;;;;2517405;23;20017;-74
2023/08/16 01:46:42;;;;;;;5.53;4.65;;;21.50;99.90;;;;;;2517883;23;20007;-74
2023/08/16 01:47:45;;;;;;;8.85;5.35;;;21.50;99.90;;;;;;2505357;23;20002;-74
2023/08/16 01:48:47;;;;;;;5.88;4.10;;;21.50;99.90;;;;;;2507346;23;20063;-74
2023/08/16 01:49:48;;;;;;;6.07;4.55;;;21.40;99.90;;;;;;2506714;23;20657;-74
2023/08/16 01:50:49;;;;;;;5.20;4.70;;;21.40;99.90;;;;;;2507138;23;20073;-74
2023/08/16 01:51:50;;;;;;;5.35;3.90;;;21.40;99.90;;;;;;2506966;23;20011;-74
2023/08/16 01:52:51;;;;;;;5.00;4.40;;;21.40;99.90;;;;;;2506122;23;20037;-74
2023/08/16 01:53:53;;;;;;;5.57;4.65;;;21.40;99.90;;;;;;2507195;23;20011;-74
2023/08/16 01:54:54;;;;;;;6.63;4.50;;;21.40;99.90;;;;;;2506060;23;20057;-74
2023/08/16 01:55:54;;;;;;;7.88;5.15;;;21.40;99.90;;;;;;2507123;23;20018;-74
2023/08/16 01:56:55;;;;;;;6.85;5.03;;;21.30;99.90;;;;;;2506424;23;20057;-74
2023/08/16 01:57:55;;;;;;;5.22;4.57;;;21.30;99.90;;;;;;2505704;23;20007;-74
2023/08/16 01:58:56;;;;;;;6.20;4.70;;;21.30;99.90;;;;;;2506971;23;20042;-74
2023/08/16 01:59:56;;;;;;;4.93;4.35;;;21.30;99.90;;;;;;2507266;23;19999;-74
2023/08/16 02:00:57;;;;;;;6.07;3.92;;;21.30;99.90;;;;;;2518097;23;20014;-74
2023/08/16 02:01:59;;;;;;;6.95;3.97;;;21.20;99.90;;;;;;2518111;23;20006;-74
2023/08/16 02:02:59;;;;;;;4.45;3.63;;;21.20;99.90;;;;;;2506292;23;20002;-74
2023/08/16 02:04:00;;;;;;;5.25;3.53;;;21.30;99.90;;;;;;2507068;23;20022;-74
2023/08/16 02:05:00;;;;;;;6.07;3.97;;;21.20;99.90;;;;;;2507240;23;20514;-74
2023/08/16 02:06:01;;;;;;;6.25;3.53;;;21.20;99.90;;;;;;2506910;23;20010;-74
2023/08/16 02:07:02;;;;;;;7.80;3.88;;;21.20;99.90;;;;;;2506320;23;20432;-74
2023/08/16 02:08:02;;;;;;;4.55;3.47;;;21.20;99.90;;;;;;2506677;23;20003;-74
2023/08/16 02:09:03;;;;;;;4.53;3.78;;;21.20;99.90;;;;;;2506754;23;20353;-74
2023/08/16 02:10:04;;;;;;;4.53;3.63;;;21.20;99.90;;;;;;2506861;23;20003;-74
2023/08/16 02:11:05;;;;;;;3.70;3.28;;;21.20;99.90;;;;;;2506583;23;20005;-74
2023/08/16 02:12:06;;;;;;;5.90;3.80;;;21.20;99.90;;;;;;2507096;23;20447;-74
2023/08/16 02:13:07;;;;;;;4.88;4.00;;;21.10;99.90;;;;;;2507137;23;20089;-74
2023/08/16 02:14:08;;;;;;;5.97;4.10;;;21.10;99.90;;;;;;2517459;23;20014;-74
2023/08/16 02:15:09;;;;;;;7.47;4.50;;;21.10;99.90;;;;;;2518023;23;20343;-74
2023/08/16 02:16:09;;;;;;;7.95;3.33;;;21.10;99.90;;;;;;2506772;23;20323;-74
2023/08/16 02:17:10;;;;;;;6.57;4.32;;;21.10;99.90;;;;;;2505873;23;20010;-74
2023/08/16 02:18:10;;;;;;;6.13;3.88;;;21.10;99.90;;;;;;2506852;23;19998;-74
2023/08/16 02:19:11;;;;;;;5.10;4.00;;;21.10;99.90;;;;;;2506671;23;20125;-74
2023/08/16 02:20:12;;;;;;;6.00;4.20;;;21.10;99.90;;;;;;2506800;23;20007;-74
2023/08/16 02:21:13;;;;;;;9.43;4.15;;;21.10;99.90;;;;;;2507406;23;20003;-74
2023/08/16 02:22:13;;;;;;;7.70;4.30;;;21.10;99.90;;;;;;2507960;23;20011;-74
2023/08/16 02:23:14;;;;;;;7.35;4.10;;;21.00;99.90;;;;;;2507526;23;20003;-74
2023/08/16 02:24:14;;;;;;;6.82;4.43;;;21.00;99.90;;;;;;2507484;23;20006;-74
2023/08/16 02:25:15;;;;;;;5.82;3.28;;;21.00;99.90;;;;;;2506763;23;20011;-74
2023/08/16 02:26:15;;;;;;;5.65;3.25;;;21.00;99.90;;;;;;2507918;23;20009;-74
2023/08/16 02:27:16;;;;;;;4.93;3.95;;;21.00;99.90;;;;;;2517512;23;20017;-74
2023/08/16 02:28:17;;;;;;;6.07;4.50;;;20.90;99.90;;;;;;2518556;23;20097;-74
2023/08/16 02:29:17;;;;;;;6.30;3.85;;;20.90;99.90;;;;;;2507438;23;20502;-74
2023/08/16 02:30:18;;;;;;;5.95;4.18;;;20.90;99.90;;;;;;2507816;23;20007;-74
2023/08/16 02:31:18;;;;;;;4.95;3.38;;;20.90;99.90;;;;;;2518567;23;20017;-73
2023/08/16 02:32:19;;;;;;;4.15;3.28;;;20.90;99.90;;;;;;2517976;23;20014;-74
2023/08/16 02:33:19;;;;;;;5.35;3.95;;;20.90;99.90;;;;;;2507433;23;20034;-74
2023/08/16 02:34:20;;;;;;;7.60;4.88;;;20.90;99.90;;;;;;2519315;23;20006;-73
2023/08/16 02:35:21;;;;;;;6.40;4.18;;;20.80;99.90;;;;;;2518583;23;20120;-74
2023/08/16 02:36:22;;;;;;;6.13;3.75;;;20.80;99.90;;;;;;2507580;23;20014;-74
2023/08/16 02:37:23;;;;;;;5.68;4.00;;;20.80;99.90;;;;;;2505167;23;20094;-74
2023/08/16 02:38:24;;;;;;;4.97;4.35;;;20.80;99.90;;;;;;2507922;23;20400;-74
2023/08/16 02:39:24;;;;;;;6.53;4.10;;;20.80;99.90;;;;;;2507536;23;20033;-74
2023/08/16 02:40:25;;;;;;;6.15;4.35;;;20.80;99.90;;;;;;2507443;23;20037;-74
2023/08/16 02:41:25;;;;;;;6.30;4.38;;;20.80;99.90;;;;;;2507407;23;20014;-74
2023/08/16 02:42:26;;;;;;;5.13;3.85;;;20.80;99.90;;;;;;2518328;23;20013;-73
2023/08/16 02:43:26;;;;;;;3.63;3.15;;;20.70;99.90;;;;;;2518830;23;20070;-73
2023/08/16 02:44:27;;;;;;;4.65;4.15;;;20.70;99.90;;;;;;2507676;23;20049;-73
2023/08/16 02:45:27;;;;;;;5.55;4.25;;;20.70;99.90;;;;;;2507644;23;20002;-73
2023/08/16 02:46:28;;;;;;;5.97;4.60;;;20.70;99.90;;;;;;2508131;23;20013;-73
2023/08/16 02:47:29;;;;;;;4.63;4.13;;;20.70;99.90;;;;;;2517231;23;20002;-73
2023/08/16 02:48:29;;;;;;;5.05;4.45;;;20.70;99.90;;;;;;2518427;23;20007;-73
2023/08/16 02:49:30;;;;;;;6.35;4.57;;;20.70;99.90;;;;;;2507259;23;20496;-74
2023/08/16 02:50:30;;;;;;;5.85;4.40;;;20.60;99.90;;;;;;2506504;23;20050;-74
2023/08/16 02:51:31;;;;;;;5.75;4.28;;;20.60;99.90;;;;;;2507684;23;20003;-74
2023/08/16 02:52:31;;;;;;;6.15;5.03;;;20.60;99.90;;;;;;2507937;23;20062;-74
2023/08/16 02:53:32;;;;;;;4.90;4.20;;;20.60;99.90;;;;;;2506864;23;20010;-73
2023/08/16 02:54:32;;;;;;;4.35;3.28;;;20.60;99.90;;;;;;2508303;23;19999;-74
2023/08/16 02:55:33;;;;;;;5.40;3.35;;;20.60;99.90;;;;;;2507467;23;20049;-73
2023/08/16 02:56:33;;;;;;;5.40;3.65;;;20.60;99.90;;;;;;2518417;23;20363;-74
2023/08/16 02:57:34;;;;;;;3.40;3.10;;;20.60;99.90;;;;;;2517960;23;20007;-74
2023/08/16 02:58:35;;;;;;;3.45;3.15;;;20.60;99.90;;;;;;2506425;23;20082;-74
2023/08/16 02:59:43;;;;;;;4.65;3.85;;;20.60;99.90;;;;;;2507647;23;19999;-73
2023/08/16 03:00:43;;;;;;;6.40;3.83;;;20.60;99.90;;;;;;2506093;23;20003;-74
2023/08/16 03:01:44;;;;;;;5.88;4.25;;;20.50;99.90;;;;;;2518669;23;20007;-74
2023/08/16 03:02:45;;;;;;;5.35;4.10;;;20.50;99.90;;;;;;2518725;23;20363;-74
2023/08/16 03:03:46;;;;;;;6.28;4.28;;;20.50;99.90;;;;;;2506840;23;20003;-74
2023/08/16 03:04:47;;;;;;;8.90;4.32;;;20.50;99.90;;;;;;2507977;23;20308;-74
2023/08/16 03:05:47;;;;;;;6.53;4.40;;;20.50;99.90;;;;;;2507486;23;20034;-74
2023/08/16 03:06:48;;;;;;;9.05;4.25;;;20.50;99.90;;;;;;2508253;23;20007;-74
2023/08/16 03:07:48;;;;;;;5.35;4.00;;;20.50;99.90;;;;;;2517245;23;20014;-74
2023/08/16 03:08:49;;;;;;;5.07;4.38;;;20.50;99.90;;;;;;2518297;23;20132;-74
2023/08/16 03:09:49;;;;;;;7.93;3.80;;;20.50;99.90;;;;;;2506226;23;19999;-73
2023/08/16 03:10:50;;;;;;;3.75;3.42;;;20.50;99.90;;;;;;2506764;23;20033;-74
2023/08/16 03:11:51;;;;;;;3.47;3.03;;;20.40;99.90;;;;;;2507463;23;20121;-73
2023/08/16 03:12:51;;;;;;;4.10;3.60;;;20.40;99.90;;;;;;2507997;23;20010;-74
2023/08/16 03:13:52;;;;;;;4.57;3.67;;;20.40;99.90;;;;;;2518552;23;20077;-74
2023/08/16 03:14:53;;;;;;;6.47;4.72;;;20.40;99.90;;;;;;2519095;23;20010;-74
2023/08/16 03:15:53;;;;;;;4.90;4.15;;;20.40;99.90;;;;;;2506365;23;20458;-74
2023/08/16 03:16:54;;;;;;;4.65;3.95;;;20.40;99.90;;;;;;2507305;23;20022;-74
2023/08/16 03:17:55;;;;;;;4.93;4.03;;;20.40;99.90;;;;;;2506726;23;20007;-74
2023/08/16 03:18:56;;;;;;;6.68;4.63;;;20.40;99.90;;;;;;2518258;23;20186;-74
2023/08/16 03:19:57;;;;;;;4.35;3.67;;;20.30;99.90;;;;;;2518477;23;20049;-74
2023/08/16 03:20:58;;;;;;;4.68;3.95;;;20.30;99.90;;;;;;2507573;23;20706;-74
2023/08/16 03:21:58;;;;;;;7.03;4.38;;;20.30;99.90;;;;;;2518365;23;20014;-74
2023/08/16 03:22:59;;;;;;;5.07;4.32;;;20.30;99.90;;;;;;2518969;23;20351;-74
2023/08/16 03:23:59;;;;;;;4.88;4.43;;;20.30;99.90;;;;;;2507300;23;20030;-74
2023/08/16 03:25:00;;;;;;;7.35;4.15;;;20.30;99.90;;;;;;2518495;23;20012;-74
2023/08/16 03:26:00;;;;;;;6.75;3.80;;;20.30;99.90;;;;;;2518524;23;20041;-73
2023/08/16 03:27:01;;;;;;;4.75;3.58;;;20.30;99.90;;;;;;2506588;23;20553;-73
2023/08/16 03:28:02;;;;;;;5.40;4.75;;;20.30;99.90;;;;;;2506580;23;20003;-73
2023/08/16 03:29:03;;;;;;;6.15;5.28;;;20.30;99.90;;;;;;2507372;23;20436;-73
2023/08/16 03:30:05;;;;;;;7.63;5.47;;;20.30;99.90;;;;;;2507557;23;20003;-73
2023/08/16 03:31:07;;;;;;;9.05;5.88;;;20.20;99.90;;;;;;2507532;23;19995;-73
2023/08/16 03:32:08;;;;;;;7.55;5.63;;;20.30;99.90;;;;;;2506871;23;20010;-74
2023/08/16 03:33:08;;;;;;;6.55;5.63;;;20.20;99.90;;;;;;2507345;23;20054;-73
2023/08/16 03:34:09;;;;;;;4.97;4.50;;;20.20;99.90;;;;;;2507269;23;20384;-73
2023/08/16 03:35:09;;;;;;;7.47;5.63;;;20.20;99.90;;;;;;2507216;23;20535;-75
2023/08/16 03:36:10;;;;;;;9.57;5.80;;;20.20;99.90;;;;;;2507390;23;20018;-74
2023/08/16 03:37:10;;;;;;;8.95;6.35;;;20.20;99.90;;;;;;2506773;23;20011;-74
2023/08/16 03:38:11;;;;;;;8.45;6.03;;;20.10;99.90;;;;;;2507125;23;20030;-74
2023/08/16 03:39:12;;;;;;;6.13;5.53;;;20.10;99.90;;;;;;2506681;23;20003;-74
2023/08/16 03:40:14;;;;;;;9.20;5.85;;;20.10;99.90;;;;;;2518488;23;20514;-74
2023/08/16 03:41:15;;;;;;;8.57;6.03;;;20.10;99.90;;;;;;2518565;23;20010;-74
2023/08/16 03:42:15;;;;;;;5.97;5.38;;;20.10;99.90;;;;;;2507129;23;20006;-74
2023/08/16 03:43:16;;;;;;;7.03;5.22;;;20.10;99.90;;;;;;2507505;23;20645;-74
2023/08/16 03:44:16;;;;;;;6.18;5.13;;;20.10;99.90;;;;;;2507785;23;20018;-74
2023/08/16 03:45:17;;;;;;;7.32;5.47;;;20.10;99.90;;;;;;2507053;23;20006;-74
2023/08/16 03:46:17;;;;;;;5.53;4.75;;;20.10;99.90;;;;;;2507325;23;20007;-74
2023/08/16 03:47:18;;;;;;;15.80;5.25;;;20.10;99.90;;;;;;2506463;23;20038;-74
2023/08/16 03:48:19;;;;;;;7.32;4.75;;;20.10;99.90;;;;;;2506806;23;20109;-74
2023/08/16 03:49:19;;;;;;;7.25;4.13;;;20.10;99.90;;;;;;2507832;23;20011;-74
2023/08/16 03:50:20;;;;;;;4.72;4.28;;;20.20;99.90;;;;;;2507031;23;20006;-74
2023/08/16 03:51:20;;;;;;;4.78;4.38;;;20.10;99.90;;;;;;2518891;23;20007;-74
2023/08/16 03:52:21;;;;;;;5.05;4.55;;;20.20;99.90;;;;;;2518866;23;20006;-74
2023/08/16 03:53:22;;;;;;;10.70;3.88;;;20.20;99.90;;;;;;2506294;23;20320;-74
2023/08/16 03:54:23;;;;;;;4.97;4.47;;;20.20;99.90;;;;;;2507462;23;20090;-74
2023/08/16 03:55:23;;;;;;;4.60;4.10;;;20.20;99.90;;;;;;2507603;23;20007;-74
2023/08/16 03:56:24;;;;;;;6.60;5.05;;;20.20;99.90;;;;;;2506895;23;20361;-74
2023/08/16 03:57:24;;;;;;;9.50;5.97;;;20.20;99.90;;;;;;2506750;23;20070;-74
2023/08/16 03:58:25;;;;;;;6.93;5.45;;;20.20;99.90;;;;;;2518374;23;20765;-73
2023/08/16 03:59:25;;;;;;;6.30;5.20;;;20.20;99.90;;;;;;2517995;23;20105;-74
2023/08/16 04:00:26;;;;;;;10.43;6.03;;;20.20;99.90;;;;;;2507451;23;20011;-74
2023/08/16 04:01:27;;;;;;;9.02;6.38;;;20.20;99.90;;;;;;2507011;23;20030;-73
2023/08/16 04:02:27;;;;;;;5.45;4.93;;;20.20;99.90;;;;;;2507644;23;20034;-74
2023/08/16 04:03:28;;;;;;;7.32;4.88;;;20.20;99.90;;;;;;2507332;23;20006;-74
2023/08/16 04:04:28;;;;;;;5.65;4.68;;;20.20;99.90;;;;;;2506537;23;20006;-74
2023/08/16 04:05:29;;;;;;;8.45;6.05;;;20.20;99.90;;;;;;2507663;23;20591;-74
2023/08/16 04:06:29;;;;;;;12.85;5.70;;;20.20;99.90;;;;;;2507091;23;20019;-74
2023/08/16 04:07:30;;;;;;;8.52;5.78;;;20.20;99.90;;;;;;2506387;23;20003;-74
2023/08/16 04:08:31;;;;;;;8.45;5.90;;;20.20;99.90;;;;;;2507095;23;20505;-74
2023/08/16 04:09:31;;;;;;;6.03;5.53;;;20.20;99.90;;;;;;2507137;23;20003;-74
2023/08/16 04:10:32;;;;;;;7.50;5.75;;;20.20;99.90;;;;;;2518651;23;20013;-74
2023/08/16 04:11:32;;;;;;;9.82;6.07;;;20.20;99.90;;;;;;2517938;23;20525;-74
2023/08/16 04:12:33;;;;;;;7.45;5.78;;;20.30;99.90;;;;;;2507383;23;20007;-74
2023/08/16 04:13:33;;;;;;;5.90;5.28;;;20.30;99.90;;;;;;2518149;23;20659;-74
2023/08/16 04:14:34;;;;;;;6.60;5.95;;;20.30;99.90;;;;;;2518685;23;20007;-74
2023/08/16 04:15:35;;;;;;;7.05;6.28;;;20.30;99.90;;;;;;2507639;23;20014;-74
2023/08/16 04:16:35;;;;;;;9.25;6.35;;;20.30;99.90;;;;;;2506435;23;20003;-74
2023/08/16 04:17:36;;;;;;;9.65;6.40;;;20.30;99.90;;;;;;2506203;23;20077;-74
2023/08/16 04:18:37;;;;;;;7.20;5.80;;;20.30;99.90;;;;;;2507263;23;20010;-74
2023/08/16 04:19:37;;;;;;;6.97;6.25;;;20.30;99.90;;;;;;2506914;23;20003;-74
2023/08/16 04:20:38;;;;;;;9.75;5.90;;;20.30;99.90;;;;;;2518566;23;20475;-74
2023/08/16 04:21:39;;;;;;;5.03;4.50;;;20.30;99.90;;;;;;2518919;23;20034;-74
2023/08/16 04:22:39;;;;;;;7.90;5.55;;;20.30;99.90;;;;;;2506898;23;20003;-74
2023/08/16 04:23:40;;;;;;;8.07;5.18;;;20.30;99.90;;;;;;2507079;23;20376;-74
2023/08/16 04:24:40;;;;;;;5.90;5.15;;;20.40;99.90;;;;;;2507368;23;20007;-74
2023/08/16 04:25:41;;;;;;;6.03;5.15;;;20.40;99.90;;;;;;2507445;23;20027;-74
2023/08/16 04:26:43;;;;;;;9.10;5.88;;;20.40;99.90;;;;;;2507428;23;20007;-74
2023/08/16 04:27:44;;;;;;;5.90;4.55;;;20.40;99.90;;;;;;2506588;23;20006;-74
2023/08/16 04:28:44;;;;;;;8.07;5.75;;;20.30;99.90;;;;;;2507576;23;20406;-74
2023/08/16 04:29:45;;;;;;;6.60;5.40;;;20.40;99.90;;;;;;2507284;23;20011;-74
2023/08/16 04:30:46;;;;;;;8.07;6.10;;;20.40;99.90;;;;;;2507046;23;20035;-74
2023/08/16 04:31:46;;;;;;;7.53;5.72;;;20.40;99.90;;;;;;2518218;23;20057;-74
2023/08/16 04:32:47;;;;;;;6.45;5.72;;;20.40;99.90;;;;;;2518892;23;20086;-74
2023/08/16 04:33:49;;;;;;;5.85;5.25;;;20.40;99.90;;;;;;2507958;23;20010;-74
2023/08/16 04:34:49;;;;;;;7.88;5.22;;;20.40;99.90;;;;;;2507335;23;20013;-74
2023/08/16 04:35:50;;;;;;;7.03;5.40;;;20.40;99.90;;;;;;2506976;23;20530;-74
2023/08/16 04:36:51;;;;;;;6.75;6.03;;;20.40;99.90;;;;;;2518220;23;20014;-74
2023/08/16 04:37:51;;;;;;;8.05;5.93;;;20.40;99.90;;;;;;2517615;23;20006;-74
2023/08/16 04:38:52;;;;;;;9.68;6.47;;;20.50;99.90;;;;;;2507196;23;20034;-74
2023/08/16 04:39:52;;;;;;;7.75;6.15;;;20.50;99.90;;;;;;2507150;23;20031;-74
2023/08/16 04:40:53;;;;;;;7.43;6.10;;;20.50;99.90;;;;;;2507210;23;20876;-74
2023/08/16 04:41:53;;;;;;;6.80;6.10;;;20.50;99.90;;;;;;2506522;23;20022;-74
2023/08/16 04:42:54;;;;;;;10.93;7.45;;;20.50;99.90;;;;;;2518717;23;20006;-74
2023/08/16 04:43:54;;;;;;;11.43;7.63;;;20.50;99.90;;;;;;2518029;23;20077;-74
2023/08/16 04:44:55;;;;;;;7.65;6.90;;;20.50;99.90;;;;;;2507270;23;20324;-73
2023/08/16 04:45:55;;;;;;;8.55;7.15;;;20.50;99.90;;;;;;2507514;23;19999;-73
2023/08/16 04:46:56;;;;;;;7.97;7.00;;;20.50;99.90;;;;;;2506034;23;20031;-74
2023/08/16 04:47:56;;;;;;;7.78;6.90;;;20.50;99.90;;;;;;2507059;23;20003;-74
2023/08/16 04:48:57;;;;;;;7.55;6.75;;;20.50;99.90;;;;;;2507381;23;20011;-73
2023/08/16 04:49:58;;;;;;;9.20;6.93;;;20.50;99.90;;;;;;2507008;23;19999;-74
2023/08/16 04:50:59;;;;;;;9.63;7.10;;;20.50;99.90;;;;;;2507632;23;20050;-73
2023/08/16 04:52:00;;;;;;;10.20;7.32;;;20.50;99.90;;;;;;2507205;23;20030;-73
2023/08/16 04:53:01;;;;;;;10.05;7.55;;;20.50;99.90;;;;;;2505333;23;20010;-73
2023/08/16 04:54:01;;;;;;;9.52;7.88;;;20.50;99.90;;;;;;2507655;23;20006;-73
2023/08/16 04:55:02;;;;;;;12.60;7.15;;;20.50;99.90;;;;;;2507150;23;20371;-73
2023/08/16 04:56:03;;;;;;;11.60;7.78;;;20.50;99.90;;;;;;2518080;23;20026;-74
2023/08/16 04:57:03;;;;;;;8.98;6.85;;;20.50;99.90;;;;;;2517771;23;20334;-74
2023/08/16 04:58:04;;;;;;;9.23;7.55;;;20.50;99.90;;;;;;2517505;23;20474;-74
2023/08/16 04:59:05;;;;;;;11.40;8.13;;;20.50;99.90;;;;;;2518686;23;20026;-74
2023/08/16 05:00:10;;;;;;;7.80;7.10;;;20.60;99.90;;;;;;2507443;23;20119;-74
2023/08/16 05:01:10;;;;;;;7.80;7.10;;;20.60;99.90;;;;;;2506984;23;20007;-74
2023/08/16 05:02:11;;;;;;;8.75;7.38;;;20.60;99.90;;;;;;2507410;23;20003;-74
2023/08/16 05:03:11;;;;;;;10.65;7.15;;;20.60;99.90;;;;;;2506435;23;20003;-74
2023/08/16 05:04:12;;;;;;;8.57;7.55;;;20.60;99.90;;;;;;2518188;23;20010;-74
2023/08/16 05:05:13;;;;;;;8.73;7.32;;;20.60;99.90;;;;;;2518387;23;20010;-74
2023/08/16 05:06:13;;;;;;;10.90;8.23;;;20.60;99.90;;;;;;2506530;23;20006;-74
2023/08/16 05:07:14;;;;;;;8.18;7.38;;;20.60;99.90;;;;;;2506613;23;20484;-74
2023/08/16 05:08:14;;;;;;;8.40;7.50;;;20.60;99.90;;;;;;2517138;23;20011;-74
2023/08/16 05:09:15;;;;;;;10.45;7.25;;;20.70;99.90;;;;;;2517897;23;20072;-74
2023/08/16 05:10:16;;;;;;;7.03;6.35;;;20.70;99.90;;;;;;2507390;23;20308;-73
2023/08/16 05:11:16;;;;;;;10.50;6.90;;;20.70;99.90;;;;;;2506378;23;20022;-73
2023/08/16 05:12:17;;;;;;;6.65;6.03;;;20.70;99.90;;;;;;2518189;23;20820;-73
2023/08/16 05:13:17;;;;;;;7.78;7.03;;;20.70;99.90;;;;;;2518315;23;20387;-73
2023/08/16 05:14:19;;;;;;;9.95;6.85;;;20.70;99.90;;;;;;2507272;23;20014;-73
2023/08/16 05:15:20;;;;;;;7.25;6.45;;;20.70;99.90;;;;;;2507493;23;20003;-73
2023/08/16 05:16:20;;;;;;;7.72;6.57;;;20.80;99.90;;;;;;2506958;23;20003;-73
2023/08/16 05:17:21;;;;;;;11.65;6.97;;;20.80;99.90;;;;;;2505834;23;20090;-73
2023/08/16 05:18:22;;;;;;;7.47;6.72;;;20.70;99.90;;;;;;2507536;23;20006;-73
2023/08/16 05:19:22;;;;;;;10.30;6.82;;;20.70;99.90;;;;;;2506989;23;20021;-73